桃園國際機場 - ATIS

METAR RCTP 010530Z 28017KT 9999 FEW020 SCT200 35/28 Q1002 NOSIG RMK A2961=

站台狀態:Online
最後更新:2018-08-15 05:45:01